createdAt,value
2023-11-19T00:01:51.099Z,99220.25
2023-11-19T00:04:19.000Z,99199.53
2023-11-19T00:06:46.759Z,99198.41
2023-11-19T00:09:14.529Z,99189.28
2023-11-19T00:11:42.175Z,99183.66
2023-11-19T00:14:09.998Z,99165.03
2023-11-19T00:16:37.737Z,99158.44
2023-11-19T00:19:06.791Z,99168.78
2023-11-19T00:21:34.621Z,99155.91
2023-11-19T00:24:02.570Z,99158.25
2023-11-19T00:26:31.112Z,99154.47
2023-11-19T00:28:58.906Z,99169.34
2023-11-19T00:31:29.239Z,99175.22
2023-11-19T00:33:57.054Z,99169.59
2023-11-19T00:36:25.549Z,99180.78
2023-11-19T00:38:53.867Z,99173.22
2023-11-19T00:41:21.469Z,99170.94
2023-11-19T00:43:49.485Z,99184.53
2023-11-19T00:46:17.189Z,99180.44
2023-11-19T00:48:44.862Z,99183.34
2023-11-19T00:51:12.936Z,99181.22
2023-11-19T00:53:40.607Z,99180.97
2023-11-19T00:56:08.224Z,99184.34
2023-11-19T00:58:35.964Z,99185.75
2023-11-19T01:01:03.627Z,99170.44
2023-11-19T01:03:31.488Z,99173.63
2023-11-19T01:06:01.010Z,99165.47
2023-11-19T01:08:28.920Z,99166.31
2023-11-19T01:10:56.519Z,99167.19
2023-11-19T01:13:24.124Z,99161.84
2023-11-19T01:15:52.397Z,99148.06
2023-11-19T01:18:20.127Z,99157.59
2023-11-19T01:20:47.858Z,99153.50
2023-11-19T01:23:15.452Z,99144.34
2023-11-19T01:25:43.097Z,99146.72
2023-11-19T01:28:10.805Z,99143.72
2023-11-19T01:30:38.637Z,99149.47
2023-11-19T01:33:08.765Z,99151.81
2023-11-19T01:35:36.493Z,99149.88
2023-11-19T01:38:04.033Z,99155.19
2023-11-19T01:40:31.719Z,99155.19
2023-11-19T01:42:59.416Z,99162.50
2023-11-19T01:45:27.127Z,99171.50
2023-11-19T01:47:54.717Z,99157.47
2023-11-19T01:50:22.371Z,99157.47
2023-11-19T01:52:50.241Z,99145.13
2023-11-19T01:55:16.813Z,99131.09
2023-11-19T01:57:44.450Z,99117.06
2023-11-19T02:00:13.889Z,99125.22
2023-11-19T02:02:42.496Z,99127.19
2023-11-19T02:05:10.482Z,99127.34
2023-11-19T02:07:38.019Z,99126.63
2023-11-19T02:10:06.812Z,99117.13
2023-11-19T02:12:36.841Z,99122.47
2023-11-19T02:15:04.656Z,99114.59
2023-11-19T02:17:32.663Z,99112.63
2023-11-19T02:20:00.578Z,99124.16
2023-11-19T02:22:28.132Z,99131.97
2023-11-19T02:24:55.861Z,99130.03
2023-11-19T02:27:23.451Z,99132.50
2023-11-19T02:29:51.003Z,99129.72
2023-11-19T02:32:18.630Z,99128.56
2023-11-19T02:34:46.225Z,99121.25
2023-11-19T02:37:15.870Z,99119.13
2023-11-19T02:39:44.154Z,99113.31
2023-11-19T02:42:12.464Z,99090.56
2023-11-19T02:44:40.487Z,99078.44
2023-11-19T02:47:09.212Z,99084.59
2023-11-19T02:49:38.521Z,99083.59
2023-11-19T02:52:08.358Z,99088.94
2023-11-19T02:54:37.771Z,99084.13
2023-11-19T02:57:05.916Z,99078.31
2023-11-19T02:59:40.376Z,99086.72
2023-11-19T03:02:08.799Z,99086.25
2023-11-19T03:04:36.623Z,99086.78
2023-11-19T03:07:04.213Z,99092.66
2023-11-19T03:09:31.822Z,99070.31
2023-11-19T03:11:59.429Z,99073.22
2023-11-19T03:14:27.012Z,99084.94
2023-11-19T03:16:54.782Z,99071.94
2023-11-19T03:21:53.048Z,99066.53
2023-11-19T03:24:20.600Z,99068.72
2023-11-19T03:26:48.120Z,99063.75
2023-11-19T03:29:15.630Z,99071.28
2023-11-19T03:31:43.747Z,99059.28
2023-11-19T03:34:11.466Z,99055.16
2023-11-19T03:36:39.079Z,99052.03
2023-11-19T03:39:06.736Z,99036.34
2023-11-19T03:44:04.635Z,99053.59
2023-11-19T03:46:32.294Z,99066.78
2023-11-19T03:49:00.140Z,99062.28
2023-11-19T03:51:27.775Z,99044.06
2023-11-19T03:53:55.310Z,99056.22
2023-11-19T03:56:23.481Z,99053.03
2023-11-19T03:58:50.957Z,99065.84
2023-11-19T04:01:18.575Z,99069.81
2023-11-19T04:06:16.913Z,99076.16
2023-11-19T04:08:44.621Z,99070.16
2023-11-19T04:11:12.134Z,99082.50
2023-11-19T04:13:39.628Z,99077.16
2023-11-19T04:16:07.330Z,99072.97
2023-11-19T04:18:34.861Z,99076.50
2023-11-19T04:21:02.721Z,99082.50
2023-11-19T04:23:30.308Z,99092.19
2023-11-19T04:26:10.777Z,99077.16
2023-11-19T04:28:38.977Z,99082.78
2023-11-19T04:31:07.295Z,99092.53
2023-11-19T04:33:34.996Z,99094.00
2023-11-19T04:36:03.715Z,99084.69
2023-11-19T04:38:31.750Z,99079.34
2023-11-19T04:40:59.551Z,99079.34
2023-11-19T04:43:27.251Z,99080.34
2023-11-19T04:45:54.943Z,99088.53
2023-11-19T04:48:22.920Z,99077.69
2023-11-19T04:50:52.416Z,99083.03
2023-11-19T04:53:19.970Z,99079.69
2023-11-19T04:55:47.537Z,99093.03
2023-11-19T04:58:15.181Z,99094.19
2023-11-19T05:00:42.771Z,99092.66
2023-11-19T05:03:10.588Z,99098.63
2023-11-19T05:05:38.295Z,99100.47
2023-11-19T05:08:06.439Z,99098.47
2023-11-19T05:10:34.327Z,99091.81
2023-11-19T05:13:01.976Z,99077.97
2023-11-19T05:15:30.077Z,99090.91
2023-11-19T05:17:57.662Z,99088.72
2023-11-19T05:20:25.346Z,99092.25
2023-11-19T05:22:54.516Z,99081.88
2023-11-19T05:25:22.292Z,99100.59
2023-11-19T05:27:49.862Z,99096.25
2023-11-19T05:30:17.441Z,99086.69
2023-11-19T05:32:45.317Z,99093.19
2023-11-19T05:35:12.928Z,99087.84
2023-11-19T05:37:40.529Z,99097.69
2023-11-19T05:40:15.505Z,99089.13
2023-11-19T05:42:43.447Z,99093.81
2023-11-19T05:45:11.179Z,99096.63
2023-11-19T05:47:38.812Z,99094.47
2023-11-19T05:50:07.395Z,99122.19
2023-11-19T05:52:35.377Z,99111.84
2023-11-19T05:55:05.583Z,99111.31
2023-11-19T05:57:46.726Z,99096.56
2023-11-19T06:00:16.718Z,99104.59
2023-11-19T06:02:44.442Z,99109.13
2023-11-19T06:05:12.068Z,99099.44
2023-11-19T06:07:40.486Z,99095.75
2023-11-19T06:10:08.211Z,99098.44
2023-11-19T06:12:38.905Z,99101.78
2023-11-19T06:15:06.659Z,99112.13
2023-11-19T06:17:34.361Z,99102.81
2023-11-19T06:20:01.982Z,99098.34
2023-11-19T06:22:29.545Z,99096.34
2023-11-19T06:24:57.154Z,99110.22
2023-11-19T06:27:24.718Z,99112.56
2023-11-19T06:29:52.304Z,99106.94
2023-11-19T06:32:20.176Z,99115.91
2023-11-19T06:34:47.731Z,99113.41
2023-11-19T06:37:15.679Z,99092.03
2023-11-19T06:39:43.259Z,99121.59
2023-11-19T06:42:10.810Z,99108.38
2023-11-19T06:44:39.055Z,99122.88
2023-11-19T06:47:07.598Z,99114.38
2023-11-19T06:49:35.194Z,99114.03
2023-11-19T06:52:02.781Z,99112.38
2023-11-19T06:54:30.369Z,99114.19
2023-11-19T06:56:58.605Z,99122.19
2023-11-19T06:59:26.545Z,99122.06
2023-11-19T07:01:54.119Z,99132.06
2023-11-19T07:04:21.673Z,99134.22
2023-11-19T07:06:49.625Z,99149.53
2023-11-19T07:09:17.788Z,99142.22
2023-11-19T07:11:46.892Z,99162.75
2023-11-19T07:14:14.538Z,99156.59
2023-11-19T07:16:42.150Z,99153.91
2023-11-19T07:19:09.695Z,99151.25
2023-11-19T07:21:40.838Z,99159.41
2023-11-19T07:24:08.464Z,99164.88
2023-11-19T07:26:36.079Z,99159.69
2023-11-19T07:29:03.952Z,99157.19
2023-11-19T07:31:31.537Z,99166.22
2023-11-19T07:33:59.132Z,99169.84
2023-11-19T07:36:26.759Z,99167.34
2023-11-19T07:38:54.340Z,99163.16
2023-11-19T07:41:21.913Z,99172.97
2023-11-19T07:43:50.736Z,99182.00
2023-11-19T07:46:20.807Z,99181.16
2023-11-19T07:48:49.052Z,99180.47
2023-11-19T07:51:16.766Z,99179.78
2023-11-19T07:53:44.289Z,99176.72
2023-11-19T07:56:11.900Z,99177.03
2023-11-19T07:58:39.912Z,99194.06
2023-11-19T08:01:07.522Z,99202.06
2023-11-19T08:03:36.250Z,99209.09
2023-11-19T08:06:04.333Z,99208.09
2023-11-19T08:08:33.997Z,99203.44
2023-11-19T08:11:01.619Z,99214.97
2023-11-19T08:13:29.281Z,99209.47
2023-11-19T08:15:56.932Z,99206.81
2023-11-19T08:18:24.669Z,99219.97
2023-11-19T08:20:54.762Z,99210.16
2023-11-19T08:23:22.496Z,99218.03
2023-11-19T08:25:50.133Z,99218.56
2023-11-19T08:28:18.167Z,99221.91
2023-11-19T08:30:46.356Z,99218.25
2023-11-19T08:33:14.104Z,99227.13
2023-11-19T08:35:42.012Z,99226.94
2023-11-19T08:38:09.597Z,99221.78
2023-11-19T08:40:37.271Z,99230.59
2023-11-19T08:43:05.050Z,99246.63
2023-11-19T08:45:33.059Z,99228.41
2023-11-19T08:48:01.278Z,99229.25
2023-11-19T08:50:29.395Z,99236.13
2023-11-19T08:52:57.546Z,99235.94
2023-11-19T08:55:25.203Z,99229.78
2023-11-19T08:57:52.869Z,99230.59
2023-11-19T09:00:20.519Z,99233.94
2023-11-19T09:02:48.343Z,99244.63
2023-11-19T09:05:16.113Z,99232.66
2023-11-19T09:07:43.836Z,99241.75
2023-11-19T09:10:12.937Z,99234.13
2023-11-19T09:12:40.814Z,99239.00
2023-11-19T09:15:08.829Z,99217.16
2023-11-19T09:17:36.767Z,99230.91
2023-11-19T09:20:04.620Z,99230.69
2023-11-19T09:22:32.344Z,99231.81
2023-11-19T09:25:01.666Z,99236.84
2023-11-19T09:27:29.572Z,99242.03
2023-11-19T09:29:59.415Z,99240.22
2023-11-19T09:32:27.655Z,99231.50
2023-11-19T09:34:55.679Z,99241.88
2023-11-19T09:37:23.579Z,99230.72
2023-11-19T09:39:51.899Z,99242.75
2023-11-19T09:42:19.688Z,99237.75
2023-11-19T09:44:47.498Z,99240.56
2023-11-19T09:47:15.289Z,99241.28
2023-11-19T09:49:43.147Z,99235.59
2023-11-19T09:52:12.433Z,99222.06
2023-11-19T09:54:40.553Z,99234.75
2023-11-19T09:57:09.058Z,99235.59
2023-11-19T09:59:36.893Z,99222.56
2023-11-19T10:02:06.929Z,99235.13
2023-11-19T10:04:36.036Z,99232.66
2023-11-19T10:07:04.070Z,99232.03
2023-11-19T10:09:31.823Z,99233.06
2023-11-19T10:11:59.575Z,99246.78
2023-11-19T10:14:27.283Z,99237.06
2023-11-19T10:16:55.398Z,99235.41
2023-11-19T10:19:23.125Z,99216.09
2023-11-19T10:21:50.837Z,99225.16
2023-11-19T10:26:52.014Z,99231.16
2023-11-19T10:29:19.917Z,99219.63
2023-11-19T10:31:50.205Z,99216.63
2023-11-19T10:34:18.250Z,99222.34
2023-11-19T10:36:46.010Z,99207.94
2023-11-19T10:39:15.478Z,99217.94
2023-11-19T10:41:44.127Z,99216.28
2023-11-19T10:44:11.944Z,99207.28
2023-11-19T10:46:40.557Z,99203.44
2023-11-19T10:49:08.531Z,99218.16
2023-11-19T10:51:36.386Z,99219.03
2023-11-19T10:54:04.331Z,99207.50
2023-11-19T10:56:32.226Z,99201.84
2023-11-19T10:59:00.921Z,99207.81
2023-11-19T11:01:29.077Z,99205.63
2023-11-19T11:03:58.380Z,99223.81
2023-11-19T11:06:26.245Z,99205.34
2023-11-19T11:08:53.936Z,99203.50
2023-11-19T11:11:22.979Z,99201.28
2023-11-19T11:13:51.673Z,99198.25
2023-11-19T11:16:20.455Z,99206.41
2023-11-19T11:18:50.904Z,99203.59
2023-11-19T11:21:19.117Z,99208.47
2023-11-19T11:23:47.267Z,99219.31
2023-11-19T11:26:15.207Z,99212.91
2023-11-19T11:28:43.785Z,99201.72
2023-11-19T11:31:12.361Z,99198.56
2023-11-19T11:33:40.249Z,99199.41
2023-11-19T11:36:07.990Z,99196.56
2023-11-19T11:38:35.883Z,99203.25
2023-11-19T11:41:07.230Z,99199.28
2023-11-19T11:43:35.065Z,99201.97
2023-11-19T11:46:05.294Z,99213.91
2023-11-19T11:48:33.454Z,99213.16
2023-11-19T11:51:01.238Z,99206.22
2023-11-19T11:53:29.132Z,99197.38
2023-11-19T11:55:59.246Z,99207.28
2023-11-19T11:58:27.054Z,99188.75
2023-11-19T12:00:55.091Z,99194.84
2023-11-19T12:03:23.251Z,99190.25
2023-11-19T12:05:51.435Z,99205.56
2023-11-19T12:08:21.765Z,99176.41
2023-11-19T12:10:54.149Z,99169.16
2023-11-19T12:13:23.325Z,99162.16
2023-11-19T12:15:51.919Z,99147.38
2023-11-19T12:18:19.768Z,99145.75
2023-11-19T12:20:47.904Z,99155.75
2023-11-19T12:23:15.732Z,99161.97
2023-11-19T12:25:43.650Z,99160.41
2023-11-19T12:28:11.452Z,99176.00
2023-11-19T12:30:39.621Z,99163.03
2023-11-19T12:33:07.628Z,99152.53
2023-11-19T12:35:35.478Z,99165.47
2023-11-19T12:38:03.388Z,99170.50
2023-11-19T12:40:31.334Z,99156.44
2023-11-19T12:42:59.294Z,99160.28
2023-11-19T12:45:27.216Z,99167.50
2023-11-19T12:47:56.318Z,99170.50
2023-11-19T12:50:24.280Z,99165.78
2023-11-19T12:52:53.514Z,99156.56
2023-11-19T12:55:29.128Z,99146.16
2023-11-19T12:57:57.655Z,99158.31
2023-11-19T13:00:25.611Z,99144.25
2023-11-19T13:02:54.282Z,99143.44
2023-11-19T13:05:20.966Z,99133.91
2023-11-19T13:07:48.829Z,99139.41
2023-11-19T13:10:18.807Z,99139.56
2023-11-19T13:12:48.155Z,99131.88
2023-11-19T13:15:16.072Z,99141.91
2023-11-19T13:17:43.864Z,99130.50
2023-11-19T13:20:11.818Z,99126.34
2023-11-19T13:22:39.636Z,99130.19
2023-11-19T13:25:07.656Z,99138.69
2023-11-19T13:27:35.944Z,99131.97
2023-11-19T13:30:03.973Z,99115.75
2023-11-19T13:32:31.769Z,99127.75
2023-11-19T13:34:59.876Z,99120.72
2023-11-19T13:37:27.871Z,99118.06
2023-11-19T13:39:56.252Z,99137.44
2023-11-19T13:42:24.678Z,99130.13
2023-11-19T13:44:52.640Z,99124.78
2023-11-19T13:47:20.562Z,99132.09
2023-11-19T13:49:48.438Z,99129.09
2023-11-19T13:52:16.728Z,99136.59
2023-11-19T13:54:44.826Z,99132.03
2023-11-19T13:57:15.716Z,99129.34
2023-11-19T13:59:43.621Z,99149.38
2023-11-19T14:02:14.381Z,99129.97
2023-11-19T14:04:42.896Z,99138.16
2023-11-19T14:07:10.825Z,99142.31
2023-11-19T14:09:42.463Z,99132.78
2023-11-19T14:12:11.247Z,99125.09
2023-11-19T14:14:40.800Z,99126.84
2023-11-19T14:19:40.374Z,99134.44
2023-11-19T14:22:08.323Z,99114.56
2023-11-19T14:24:36.145Z,99110.56
2023-11-19T14:27:03.906Z,99121.59
2023-11-19T14:29:32.017Z,99109.56
2023-11-19T14:32:00.371Z,99111.03
2023-11-19T14:34:28.444Z,99119.13
2023-11-19T14:36:56.434Z,99122.06
2023-11-19T14:39:24.549Z,99130.66
2023-11-19T14:41:53.409Z,99129.41
2023-11-19T14:44:24.369Z,99123.50
2023-11-19T14:46:53.692Z,99127.78
2023-11-19T14:49:21.679Z,99139.81
2023-11-19T14:51:49.799Z,99134.63
2023-11-19T14:54:17.615Z,99131.13
2023-11-19T14:56:45.561Z,99145.78
2023-11-19T14:59:13.853Z,99139.09
2023-11-19T15:01:45.592Z,99146.06
2023-11-19T15:04:13.659Z,99144.84
2023-11-19T15:06:41.763Z,99141.72
2023-11-19T15:09:11.174Z,99146.28
2023-11-19T15:11:39.031Z,99135.38
2023-11-19T15:14:07.716Z,99134.69
2023-11-19T15:16:36.482Z,99135.81
2023-11-19T15:19:06.345Z,99135.66
2023-11-19T15:21:34.281Z,99135.81
2023-11-19T15:24:02.154Z,99129.66
2023-11-19T15:26:30.086Z,99125.31
2023-11-19T15:28:59.086Z,99125.31
2023-11-19T15:31:27.612Z,99125.13
2023-11-19T15:33:55.665Z,99114.31
2023-11-19T15:36:23.599Z,99121.50
2023-11-19T15:38:54.670Z,99115.63
2023-11-19T15:41:22.759Z,99122.25
2023-11-19T15:43:51.119Z,99130.69
2023-11-19T15:46:19.148Z,99139.56
2023-11-19T15:48:47.094Z,99138.41
2023-11-19T15:51:15.124Z,99142.75
2023-11-19T15:53:44.789Z,99141.78
2023-11-19T15:56:12.829Z,99122.09
2023-11-19T15:58:41.556Z,99132.31
2023-11-19T16:01:10.314Z,99139.47
2023-11-19T16:06:11.800Z,99127.09
2023-11-19T16:08:40.715Z,99141.69
2023-11-19T16:11:09.577Z,99141.88
2023-11-19T16:13:37.451Z,99112.47
2023-11-19T16:16:06.611Z,99131.41
2023-11-19T16:18:35.118Z,99110.53
2023-11-19T16:21:03.091Z,99128.34
2023-11-19T16:23:31.006Z,99120.19
2023-11-19T16:25:58.871Z,99121.44
2023-11-19T16:28:27.125Z,99131.66
2023-11-19T16:30:54.951Z,99118.28
2023-11-19T16:33:28.872Z,99123.75
2023-11-19T16:35:59.962Z,99124.69
2023-11-19T16:38:28.502Z,99119.22
2023-11-19T16:40:57.272Z,99120.34
2023-11-19T16:43:30.192Z,99122.31
2023-11-19T16:45:58.327Z,99115.28
2023-11-19T16:48:26.575Z,99127.91
2023-11-19T16:53:27.630Z,99135.00
2023-11-19T16:56:00.096Z,99138.09
2023-11-19T16:58:27.980Z,99131.38
2023-11-19T17:00:55.791Z,99157.59
2023-11-19T17:03:23.757Z,99144.88
2023-11-19T17:05:51.666Z,99141.81
2023-11-19T17:08:19.574Z,99144.06
2023-11-19T17:10:48.309Z,99138.19
2023-11-19T17:13:16.202Z,99167.66
2023-11-19T17:15:44.320Z,99157.28
2023-11-19T17:18:12.336Z,99150.25
2023-11-19T17:20:41.977Z,99152.25
2023-11-19T17:23:10.213Z,99145.25
2023-11-19T17:25:39.924Z,99139.91
2023-11-19T17:28:10.737Z,99138.22
2023-11-19T17:30:39.458Z,99136.53
2023-11-19T17:33:07.751Z,99148.03
2023-11-19T17:35:36.028Z,99140.59
2023-11-19T17:38:03.967Z,99157.28
2023-11-19T17:40:32.789Z,99153.63
2023-11-19T17:43:00.908Z,99157.38
2023-11-19T17:45:32.779Z,99146.72
2023-11-19T17:48:00.809Z,99152.34
2023-11-19T17:50:28.840Z,99153.47
2023-11-19T17:52:58.048Z,99159.78
2023-11-19T17:55:26.370Z,99158.13
2023-11-19T17:57:54.970Z,99154.59
2023-11-19T18:00:23.287Z,99153.91
2023-11-19T18:02:53.324Z,99156.56
2023-11-19T18:05:22.599Z,99160.91
2023-11-19T18:07:50.434Z,99162.91
2023-11-19T18:10:18.902Z,99150.56
2023-11-19T18:12:46.967Z,99149.84
2023-11-19T18:15:17.005Z,99143.00
2023-11-19T18:17:45.728Z,99147.78
2023-11-19T18:20:15.393Z,99144.41
2023-11-19T18:22:43.759Z,99155.22
2023-11-19T18:25:12.510Z,99148.34
2023-11-19T18:27:40.699Z,99140.63
2023-11-19T18:30:09.181Z,99138.13
2023-11-19T18:32:37.666Z,99135.59
2023-11-19T18:35:06.451Z,99134.91
2023-11-19T18:37:34.685Z,99136.88
2023-11-19T18:40:02.963Z,99137.03
2023-11-19T18:42:31.101Z,99130.84
2023-11-19T18:44:59.043Z,99135.47
2023-11-19T18:47:27.906Z,99140.81
2023-11-19T18:49:55.694Z,99145.44
2023-11-19T18:52:23.549Z,99142.78
2023-11-19T18:54:51.448Z,99135.78
2023-11-19T18:57:19.560Z,99135.78
2023-11-19T18:59:48.824Z,99137.72
2023-11-19T19:02:17.287Z,99135.06
2023-11-19T19:04:45.828Z,99129.72
2023-11-19T19:07:13.699Z,99127.91
2023-11-19T19:09:43.631Z,99128.75
2023-11-19T19:12:11.690Z,99124.97
2023-11-19T19:14:39.535Z,99123.16
2023-11-19T19:17:09.548Z,99118.50
2023-11-19T19:19:40.494Z,99114.88
2023-11-19T19:22:08.413Z,99127.06
2023-11-19T19:24:38.626Z,99126.91
2023-11-19T19:27:06.342Z,99122.59
2023-11-19T19:29:34.215Z,99121.88
2023-11-19T19:32:02.168Z,99112.50
2023-11-19T19:34:31.129Z,99121.59
2023-11-19T19:36:59.819Z,99115.72
2023-11-19T19:39:29.513Z,99114.19
2023-11-19T19:41:57.411Z,99112.50
2023-11-19T19:44:26.872Z,99113.50
2023-11-19T19:46:55.469Z,99111.69
2023-11-19T19:49:23.320Z,99108.31
2023-11-19T19:51:52.021Z,99114.47
2023-11-19T19:54:19.989Z,99103.97
2023-11-19T19:56:47.862Z,99102.16
2023-11-19T19:59:15.881Z,99106.63
2023-11-19T20:01:43.907Z,99095.16
2023-11-19T20:04:12.723Z,99090.66
2023-11-19T20:06:42.723Z,99093.31
2023-11-19T20:09:15.094Z,99095.97
2023-11-19T20:11:45.112Z,99091.50
2023-11-19T20:14:13.987Z,99094.00
2023-11-19T20:16:41.909Z,99086.03
2023-11-19T20:19:09.921Z,99078.88
2023-11-19T20:21:38.328Z,99074.41
2023-11-19T20:24:07.062Z,99075.25
2023-11-19T20:26:35.547Z,99078.59
2023-11-19T20:31:35.075Z,99094.44
2023-11-19T20:34:03.353Z,99090.78
2023-11-19T20:36:31.586Z,99103.09
2023-11-19T20:38:59.502Z,99103.09
2023-11-19T20:41:29.005Z,99095.97
2023-11-19T20:43:56.886Z,99091.47
2023-11-19T20:46:24.963Z,99091.47
2023-11-19T20:48:53.300Z,99081.66
2023-11-19T20:51:28.082Z,99109.16
2023-11-19T20:53:59.533Z,99102.13
2023-11-19T20:56:27.418Z,99110.09
2023-11-19T20:58:56.046Z,99096.78
2023-11-19T21:01:24.019Z,99097.66
2023-11-19T21:03:52.004Z,99101.16
2023-11-19T21:06:21.201Z,99103.81
2023-11-19T21:08:48.124Z,99099.31
2023-11-19T21:11:16.042Z,99097.50
2023-11-19T21:13:45.275Z,99098.19
2023-11-19T21:16:13.164Z,99104.50
2023-11-19T21:18:41.209Z,99108.00
2023-11-19T21:21:09.250Z,99106.06
2023-11-19T21:23:37.333Z,99095.41
2023-11-19T21:26:05.655Z,99090.06
2023-11-19T21:28:34.658Z,99096.22
2023-11-19T21:31:02.816Z,99092.56
2023-11-19T21:33:31.015Z,99102.41
2023-11-19T21:35:59.724Z,99092.56
2023-11-19T21:38:29.024Z,99093.28
2023-11-19T21:40:56.944Z,99090.63
2023-11-19T21:43:24.763Z,99086.97
2023-11-19T21:45:52.638Z,99087.78
2023-11-19T21:48:20.572Z,99087.66
2023-11-19T21:50:48.925Z,99080.53
2023-11-19T21:53:17.405Z,99088.34
2023-11-19T21:55:45.559Z,99088.34
2023-11-19T21:58:13.717Z,99090.03
2023-11-19T22:00:41.761Z,99096.22
2023-11-19T22:03:09.809Z,99096.34
2023-11-19T22:05:37.703Z,99094.41
2023-11-19T22:10:36.191Z,99091.72
2023-11-19T22:13:04.694Z,99102.38
2023-11-19T22:15:32.903Z,99095.09
2023-11-19T22:18:01.001Z,99104.06
2023-11-19T22:20:29.651Z,99096.75
2023-11-19T22:22:57.668Z,99104.75
2023-11-19T22:25:28.064Z,99098.44
2023-11-19T22:27:55.991Z,99102.78
2023-11-19T22:30:23.950Z,99095.63
2023-11-19T22:32:52.535Z,99095.63
2023-11-19T22:35:20.475Z,99099.13
2023-11-19T22:37:48.246Z,99093.78
2023-11-19T22:40:16.254Z,99095.47
2023-11-19T22:42:43.974Z,99099.84
2023-11-19T22:45:11.757Z,99096.19
2023-11-19T22:47:39.597Z,99101.50
2023-11-19T22:50:08.258Z,99094.34
2023-11-19T22:52:36.750Z,99095.19
2023-11-19T22:55:04.743Z,99095.88
2023-11-19T22:57:32.524Z,99099.41
2023-11-19T23:00:00.411Z,99097.56
2023-11-19T23:02:30.915Z,99099.22
2023-11-19T23:04:58.771Z,99097.28
2023-11-19T23:07:26.734Z,99096.28
2023-11-19T23:10:12.829Z,99101.63
2023-11-19T23:12:41.372Z,99087.19
2023-11-19T23:15:15.841Z,99091.34
2023-11-19T23:17:44.104Z,99101.59
2023-11-19T23:20:14.392Z,99097.63
2023-11-19T23:22:42.515Z,99100.84
2023-11-19T23:25:11.441Z,99101.84
2023-11-19T23:27:39.179Z,99099.19
2023-11-19T23:30:06.878Z,99104.50
2023-11-19T23:32:35.714Z,99104.63
2023-11-19T23:35:10.196Z,99115.28
2023-11-19T23:37:38.278Z,99111.81
2023-11-19T23:40:07.430Z,99109.16
2023-11-19T23:42:35.220Z,99107.84
2023-11-19T23:45:02.982Z,99089.75
2023-11-19T23:47:30.859Z,99099.28
2023-11-19T23:49:58.696Z,99098.69
2023-11-19T23:52:26.360Z,99100.91
2023-11-19T23:54:54.046Z,99109.31
2023-11-19T23:57:22.689Z,99089.22
2023-11-19T23:59:50.376Z,99091.44
